Time;durP1;ratioP1;P1;durP2;ratioP2;P2;SDS_P1;SDS_P2;PMS_P1;PMS_P2;Temp;Humidity;BMP_temperature;BMP_pressure;BME280_temperature;BME280_humidity;BME280_pressure;Samples;Min_cycle;Max_cycle;Signal;HPM_P1;HPM_P2
2023/05/07 00:02:21;;;;;;;7.87;7.23;;;;;;;15.39;100.00;148942.50;5037478;28;20229;-47
2023/05/07 00:05:35;;;;;;;7.50;6.33;;;;;;;15.41;100.00;148947.56;5037799;28;20205;-50
2023/05/07 00:08:31;;;;;;;;;;;;;;;;;;;;;
2023/05/07 00:15:31;;;;;;;7.17;6.47;;;;;;;15.46;100.00;148961.44;5037514;28;20589;-48
2023/05/07 00:18:35;;;;;;;7.50;6.90;;;;;;;15.41;100.00;148948.81;5037952;28;20678;-49
2023/05/07 00:21:33;;;;;;;7.70;6.93;;;;;;;15.36;100.00;148936.19;5034892;28;20220;-48
2023/05/07 00:24:18;;;;;;;7.53;6.83;;;;;;;15.35;100.00;148933.66;5039964;28;20193;-48
2023/05/07 00:30:32;;;;;;;;;;;;;;;;;;;;;
2023/05/07 00:33:33;;;;;;;7.53;6.70;;;;;;;15.41;100.00;148947.56;5036647;28;20197;-47
2023/05/07 00:46:15;;;;;;;8.07;7.30;;;;;;;15.24;100.00;148907.16;4434581;27;20011265;-47
2023/05/07 00:49:07;;;;;;;9.10;6.87;;;;;;;15.18;100.00;148892.03;5133807;27;20194;-48
2023/05/07 00:52:07;;;;;;;8.00;7.30;;;;;;;15.18;100.00;148890.78;5136957;27;20216;-49
2023/05/07 00:55:11;;;;;;;9.60;7.43;;;;;;;15.15;100.00;148883.19;5138829;27;20190;-49
2023/05/07 00:58:06;;;;;;;7.30;6.60;;;;;;;15.19;100.00;148894.56;5136298;27;20719;-49
2023/05/07 01:15:36;;;;;;;10.60;7.53;;;;;;;15.25;100.00;148909.69;5136261;27;20190;-48
2023/05/07 01:18:53;;;;;;;;;;;;;;;;;;;;;
2023/05/07 01:21:57;;;;;;;7.43;6.73;;;;;;;15.18;100.00;148892.03;5132551;27;20562;-49
2023/05/07 01:31:06;;;;;;;7.70;7.10;;;;;;;15.04;100.00;148855.44;5134261;27;20641;-48
2023/05/07 01:33:56;;;;;;;7.67;7.07;;;;;;;15.00;100.00;148846.63;5131643;27;20186;-47
2023/05/07 01:36:43;;;;;;;8.73;7.50;;;;;;;14.97;100.00;148837.78;5135220;27;20197;-49
2023/05/07 01:39:46;;;;;;;7.77;7.07;;;;;;;14.97;100.00;148839.06;5135092;27;20249;-49
2023/05/07 01:45:40;;;;;;;8.53;7.93;;;;;;;14.99;100.00;148844.09;5130400;27;20221;-49
2023/05/07 01:48:30;;;;;;;10.87;9.33;;;;;;;14.92;100.00;148826.41;5132561;27;20190;-47
2023/05/07 01:51:15;;;;;;;13.90;10.00;;;;;;;14.87;100.00;148815.09;5137669;27;20604;-47
2023/05/07 01:57:30;;;;;;;11.93;10.33;;;;;;;14.95;100.00;148834.00;5121138;27;20202;-48
2023/05/07 02:00:37;;;;;;;11.07;10.07;;;;;;;14.96;100.00;148836.53;5123500;27;20221;-48
2023/05/07 02:03:29;;;;;;;14.27;10.80;;;;;;;15.02;100.00;148851.66;5121944;27;20194;-48
2023/05/07 02:12:30;;;;;;;12.73;10.90;;;;;;;14.99;100.00;148842.84;5122026;27;20669;-48
2023/05/07 02:15:33;;;;;;;12.10;11.00;;;;;;;15.00;100.00;148845.38;5123415;27;20649;-48
2023/05/07 02:18:30;;;;;;;17.10;11.23;;;;;;;14.84;100.00;148806.25;5119699;27;20716;-47
2023/05/07 02:21:23;;;;;;;13.53;11.33;;;;;;;14.74;100.00;148781.03;5119026;27;20198;-49
2023/05/07 02:24:09;;;;;;;13.13;11.60;;;;;;;14.68;100.00;148767.13;5121414;27;20610;-48
2023/05/07 02:27:08;;;;;;;16.50;12.70;;;;;;;14.67;100.00;148763.38;5122448;27;20186;-48
2023/05/07 02:33:29;;;;;;;11.40;10.27;;;;;;;14.49;100.00;148719.19;5117681;27;20206;-48
2023/05/07 02:36:41;;;;;;;14.90;9.63;;;;;;;14.51;100.00;148724.25;5122945;27;20230;-48
2023/05/07 02:39:28;;;;;;;15.83;10.17;;;;;;;14.51;100.00;148725.53;5119471;27;20194;-47
2023/05/07 02:42:33;;;;;;;12.57;10.57;;;;;;;14.43;100.00;148704.09;5122740;27;20195;-48
2023/05/07 02:45:37;;;;;;;12.23;10.60;;;;;;;14.33;100.00;148680.09;5118927;27;20230;-49
2023/05/07 02:51:36;;;;;;;11.93;10.40;;;;;;;14.15;100.00;148634.66;5119739;27;20198;-48
2023/05/07 02:54:39;;;;;;;10.80;9.80;;;;;;;14.20;100.00;148647.31;5120901;27;20277;-48
2023/05/07 02:57:28;;;;;;;11.63;10.27;;;;;;;14.29;100.00;148669.97;5119422;27;20194;-47
2023/05/07 03:00:32;;;;;;;10.57;9.67;;;;;;;14.42;100.00;148701.56;5122216;27;20197;-47
2023/05/07 03:06:36;;;;;;;9.97;9.07;;;;;;;14.49;100.00;148720.47;5107295;27;20293;-49
2023/05/07 03:09:46;;;;;;;10.73;9.70;;;;;;;14.52;100.00;148726.78;5131109;27;20217;-48
2023/05/07 03:12:35;;;;;;;10.03;9.13;;;;;;;14.50;100.00;148723.00;5131147;27;20201;-50
2023/05/07 03:15:29;;;;;;;9.93;8.93;;;;;;;14.52;100.00;148726.78;5129212;27;20631;-49
2023/05/07 03:18:27;;;;;;;12.60;9.63;;;;;;;14.59;100.00;148743.16;5129684;27;20209;-49
2023/05/07 03:27:38;;;;;;;11.97;10.67;;;;;;;14.58;100.00;148740.63;5129061;27;20193;-49
2023/05/07 03:30:19;;;;;;;11.53;10.23;;;;;;;14.46;100.00;148711.63;5113188;27;20225;-48
2023/05/07 03:33:01;;;;;;;11.20;10.17;;;;;;;14.39;100.00;148695.25;5122958;27;20237;-47
2023/05/07 03:35:41;;;;;;;11.90;10.70;;;;;;;14.38;100.00;148692.69;5113521;27;20194;-47
2023/05/07 03:38:18;;;;;;;12.73;11.53;;;;;;;14.41;100.00;148699.03;5109499;28;20202;-49
2023/05/07 03:41:05;;;;;;;12.17;11.00;;;;;;;14.41;100.00;148700.31;5110028;28;20194;-49
2023/05/07 03:43:53;;;;;;;12.87;11.23;;;;;;;14.42;100.00;148702.84;5108773;28;20201;-47
2023/05/07 03:46:40;;;;;;;13.07;11.73;;;;;;;14.46;100.00;148711.63;5109073;28;20322;-47
2023/05/07 03:52:14;;;;;;;13.50;11.07;;;;;;;14.92;100.00;148825.16;5113908;27;20623;-47
2023/05/07 03:55:12;;;;;;;11.47;9.70;;;;;;;15.80;100.00;149044.81;5109441;28;20190;-47
2023/05/07 03:58:07;;;;;;;12.77;9.83;;;;;;;17.01;100.00;149346.72;5108594;28;20198;-48
2023/05/07 04:00:58;;;;;;;10.67;9.60;;;;;;;18.37;100.00;149686.81;5109368;28;25123;-48
2023/05/07 04:03:32;;;;;;;9.25;8.52;;;;;;;19.49;100.00;149965.28;5108517;27;20229;-48
2023/05/07 04:06:24;;;;;;;9.27;8.52;;;;;;;20.46;100.00;150207.16;5129637;27;25056;-50
2023/05/07 04:09:07;;;;;;;8.52;7.70;;;;;;;21.79;97.03;150539.19;5129406;27;20710;-49
2023/05/07 04:11:49;;;;;;;8.23;7.47;;;;;;;22.96;90.83;150833.53;5129420;27;20199;-50
2023/05/07 04:14:32;;;;;;;8.70;7.55;;;;;;;23.92;80.27;151072.22;5129579;27;20220;-49
2023/05/07 04:17:15;;;;;;;9.10;8.38;;;;;;;23.89;78.98;151067.13;5129423;27;20220;-49
2023/05/07 04:20:03;;;;;;;9.68;8.73;;;;;;;24.35;77.71;151180.19;5110636;27;20666;-48
2023/05/07 04:22:46;;;;;;;9.55;8.55;;;;;;;24.34;74.61;151178.91;5109291;28;20302;-49
2023/05/07 04:25:26;;;;;;;9.45;8.77;;;;;;;24.81;73.23;151295.78;5107978;28;20226;-49
2023/05/07 04:28:01;;;;;;;9.65;8.75;;;;;;;25.95;69.19;151583.06;5122538;27;20276;-49
2023/05/07 04:30:31;;;;;;;9.27;8.48;;;;;;;26.94;65.12;151831.13;5120129;27;20222;-49
2023/05/07 04:33:12;;;;;;;9.07;8.27;;;;;;;27.91;61.00;152074.19;5114642;27;25059;-49
2023/05/07 04:36:02;;;;;;;8.35;7.80;;;;;;;28.17;58.63;152139.09;5109234;28;20290;-51
2023/05/07 04:38:50;;;;;;;8.77;8.00;;;;;;;28.31;57.10;152173.53;5108797;28;20226;-51
2023/05/07 04:41:18;;;;;;;8.20;7.63;;;;;;;28.65;55.86;152258.84;5106900;28;20218;-52
2023/05/07 04:43:51;;;;;;;9.38;8.68;;;;;;;28.86;55.25;152313.66;5110616;28;20511;-51
2023/05/07 04:46:24;;;;;;;8.35;7.75;;;;;;;29.36;52.74;152438.44;5115607;28;20245;-50
2023/05/07 04:49:05;;;;;;;8.07;7.57;;;;;;;29.35;52.41;152434.59;5118643;28;20635;-49
2023/05/07 04:51:35;;;;;;;8.35;7.55;;;;;;;29.30;51.79;152421.91;5118756;28;20278;-50
2023/05/07 04:54:12;;;;;;;10.13;8.57;;;;;;;29.53;51.08;152480.56;5120139;28;20226;-50
2023/05/07 04:56:39;;;;;;;8.20;7.70;;;;;;;30.22;48.91;152655.19;5130629;28;20263;-48
2023/05/07 04:59:11;;;;;;;8.75;8.05;;;;;;;30.80;47.86;152800.56;5130162;28;20227;-50
2023/05/07 05:01:51;;;;;;;8.10;7.47;;;;;;;31.45;46.15;152963.81;5129998;28;20253;-49
2023/05/07 05:05:01;;;;;;;8.30;7.45;;;;;;;32.20;43.95;153151.44;5127905;28;20229;-48
2023/05/07 05:07:52;;;;;;;8.60;7.80;;;;;;;31.97;44.13;153093.97;5127089;28;20208;-51
2023/05/07 05:10:41;;;;;;;10.75;7.72;;;;;;;32.38;42.82;153198.69;5130339;28;20190;-53
2023/05/07 05:13:47;;;;;;;9.55;7.75;;;;;;;32.44;41.83;153212.69;5120340;28;20194;-49
2023/05/07 05:19:44;;;;;;;7.43;6.82;;;;;;;33.11;40.43;153382.50;5128110;28;20281;-48
2023/05/07 05:22:40;;;;;;;7.82;7.30;;;;;;;32.88;40.30;153322.50;5129991;28;20193;-49
2023/05/07 05:25:37;;;;;;;8.38;7.60;;;;;;;32.94;40.20;153337.84;5129766;28;20228;-50
2023/05/07 05:28:27;;;;;;;7.82;7.22;;;;;;;32.69;40.81;153276.50;5129692;28;20672;-50
2023/05/07 05:31:14;;;;;;;8.80;7.40;;;;;;;32.88;40.56;153322.50;5130035;27;20205;-48
2023/05/07 05:37:31;;;;;;;11.60;7.70;;;;;;;31.86;41.42;153065.91;5134376;27;20197;-51
2023/05/07 05:40:15;;;;;;;8.45;7.65;;;;;;;31.24;42.49;152910.25;5133872;27;20198;-48
2023/05/07 05:42:54;;;;;;;8.02;7.30;;;;;;;31.37;42.51;152943.44;5124709;27;20302;-49
2023/05/07 05:48:35;;;;;;;8.75;7.68;;;;;;;31.60;42.31;153002.09;5131076;27;20193;-51
2023/05/07 05:51:06;;;;;;;7.90;7.30;;;;;;;32.17;40.91;153145.00;5133384;27;20221;-48
2023/05/07 05:53:56;;;;;;;8.63;7.32;;;;;;;32.75;39.20;153290.56;5130864;27;20250;-50
2023/05/07 05:56:43;;;;;;;8.10;7.28;;;;;;;32.46;39.48;153219.09;5114852;27;20202;-51
2023/05/07 05:59:29;;;;;;;8.63;7.93;;;;;;;31.98;39.69;153096.53;5112545;28;20190;-51
2023/05/07 06:02:09;;;;;;;8.77;8.13;;;;;;;32.41;38.45;153206.28;5112308;28;20199;-50
2023/05/07 06:04:55;;;;;;;10.80;9.13;;;;;;;31.83;39.90;153058.28;5112054;28;20198;-51
2023/05/07 06:07:40;;;;;;;10.70;8.90;;;;;;;31.81;39.13;153054.44;5111862;28;20194;-50
2023/05/07 06:10:26;;;;;;;10.07;7.95;;;;;;;31.37;39.87;152944.72;5111884;28;20285;-51
2023/05/07 06:12:56;;;;;;;11.43;8.50;;;;;;;31.57;39.78;152993.16;5111365;28;20198;-50
2023/05/07 06:15:33;;;;;;;10.10;8.90;;;;;;;31.89;39.37;153073.56;5110145;28;20693;-51
2023/05/07 06:18:12;;;;;;;10.35;9.27;;;;;;;32.37;39.01;153196.13;5111804;28;20270;-51
2023/05/07 06:20:57;;;;;;;10.07;9.15;;;;;;;31.87;39.30;153068.47;5111654;28;20201;-49
2023/05/07 06:23:50;;;;;;;10.23;8.32;;;;;;;31.52;40.01;152981.66;5110994;28;20818;-51
2023/05/07 06:26:27;;;;;;;9.77;8.85;;;;;;;32.10;39.52;153127.16;5111945;28;20274;-50
2023/05/07 06:29:14;;;;;;;9.35;8.55;;;;;;;31.74;39.10;153037.84;5111733;28;20198;-49
2023/05/07 06:31:42;;;;;;;9.13;8.18;;;;;;;31.33;40.43;152934.50;5112079;27;20724;-50
2023/05/07 06:34:20;;;;;;;10.35;9.20;;;;;;;31.42;40.02;152956.16;5116760;27;20237;-48
2023/05/07 06:36:59;;;;;;;9.32;8.45;;;;;;;30.63;41.60;152757.19;5110822;28;20654;-49
2023/05/07 06:39:42;;;;;;;8.93;8.13;;;;;;;30.28;41.87;152670.47;5111306;28;20689;-49
2023/05/07 06:42:26;;;;;;;8.95;8.15;;;;;;;29.65;43.33;152511.13;5114665;27;20241;-51
2023/05/07 06:45:03;;;;;;;8.85;8.15;;;;;;;29.65;43.58;152509.84;5128334;27;20230;-49
2023/05/07 06:47:41;;;;;;;11.50;8.93;;;;;;;29.56;44.42;152489.50;5131372;27;20217;-50
2023/05/07 06:50:22;;;;;;;9.38;8.65;;;;;;;29.93;43.57;152581.19;5130312;27;20230;-52
2023/05/07 06:52:57;;;;;;;10.27;8.45;;;;;;;29.71;43.66;152525.13;5128830;27;20303;-51
2023/05/07 06:55:33;;;;;;;9.00;8.35;;;;;;;29.57;43.99;152492.00;5121034;27;20217;-51
2023/05/07 06:58:20;;;;;;;10.35;9.40;;;;;;;29.96;43.88;152590.19;5120320;27;20220;-52
2023/05/07 07:00:55;;;;;;;10.05;8.82;;;;;;;29.53;44.51;152481.81;5120016;27;20214;-50
2023/05/07 07:03:33;;;;;;;9.70;8.70;;;;;;;28.80;46.11;152298.34;5120059;27;20226;-51
2023/05/07 07:06:19;;;;;;;9.35;8.27;;;;;;;29.04;45.93;152356.94;5120350;27;20229;-51
2023/05/07 07:08:48;;;;;;;9.02;8.23;;;;;;;29.45;45.26;152461.47;5121014;27;20225;-51
2023/05/07 07:11:32;;;;;;;8.23;7.72;;;;;;;29.57;44.68;152490.75;5119120;27;20218;-51
2023/05/07 07:14:10;;;;;;;8.50;7.88;;;;;;;29.36;44.77;152438.44;5121803;27;20621;-50
2023/05/07 07:16:46;;;;;;;10.32;8.10;;;;;;;29.10;45.80;152372.25;5118674;27;20768;-51
2023/05/07 07:19:26;;;;;;;9.13;8.32;;;;;;;28.56;46.36;152237.16;5119289;27;20222;-50
2023/05/07 07:22:05;;;;;;;8.95;7.47;;;;;;;28.86;45.75;152313.66;5117350;27;20706;-50
2023/05/07 07:24:56;;;;;;;8.90;7.93;;;;;;;29.89;44.42;152571.03;5116812;27;20616;-52
2023/05/07 07:27:29;;;;;;;9.40;8.45;;;;;;;30.18;43.06;152643.69;5121264;27;20210;-51
2023/05/07 07:30:17;;;;;;;8.38;7.55;;;;;;;30.27;42.50;152666.63;5119282;27;20724;-51
2023/05/07 07:32:54;;;;;;;8.55;8.02;;;;;;;30.31;42.89;152678.13;5119701;27;20649;-50
2023/05/07 07:35:23;;;;;;;8.38;7.57;;;;;;;31.12;41.25;152879.66;5119029;27;20261;-52
2023/05/07 07:37:55;;;;;;;8.52;7.75;;;;;;;31.42;40.46;152956.16;5120001;27;20776;-49
2023/05/07 07:40:23;;;;;;;10.07;9.15;;;;;;;31.39;40.37;152949.78;5119219;27;20221;-51
2023/05/07 07:42:58;;;;;;;9.50;8.77;;;;;;;30.80;41.08;152800.56;5120790;27;20538;-51
2023/05/07 07:45:38;;;;;;;9.70;8.70;;;;;;;30.90;41.32;152826.06;5126629;27;20463;-51
2023/05/07 07:48:22;;;;;;;9.65;8.52;;;;;;;30.96;40.86;152841.34;5129905;27;20250;-52
2023/05/07 07:51:05;;;;;;;8.00;7.15;;;;;;;31.66;39.76;153017.44;5130669;27;20225;-51
2023/05/07 07:53:44;;;;;;;9.15;8.43;;;;;;;32.25;38.93;153165.50;5127134;27;20206;-51
2023/05/07 07:56:27;;;;;;;10.55;9.48;;;;;;;32.57;38.10;153244.59;5115381;27;20305;-51
2023/05/07 07:58:59;;;;;;;9.05;8.15;;;;;;;33.55;36.65;153492.34;5109690;28;20257;-52
2023/05/07 08:01:56;;;;;;;9.50;8.43;;;;;;;33.72;36.37;153535.78;5108566;28;20732;-50
2023/05/07 08:04:41;;;;;;;12.25;8.15;;;;;;;33.70;35.61;153530.66;5109629;28;20218;-52
2023/05/07 08:07:11;;;;;;;8.32;7.20;;;;;;;33.85;35.57;153569.03;5108310;28;20591;-52
2023/05/07 08:10:01;;;;;;;8.32;7.05;;;;;;;33.57;36.01;153497.47;5108940;28;20257;-51
2023/05/07 08:12:40;;;;;;;8.15;7.35;;;;;;;32.98;37.00;153349.28;5108045;28;20282;-51
2023/05/07 08:15:20;;;;;;;7.03;6.43;;;;;;;32.94;36.76;153337.84;5105022;28;20261;-52
2023/05/07 08:18:05;;;;;;;7.38;6.68;;;;;;;32.37;37.86;153194.84;5107223;28;20234;-51
2023/05/07 08:20:42;;;;;;;7.90;7.15;;;;;;;32.03;39.12;153110.59;5107771;28;20701;-51
2023/05/07 08:23:39;;;;;;;7.30;6.57;;;;;;;31.18;39.01;152896.22;5114534;27;20220;-51
2023/05/07 08:26:07;;;;;;;5.63;5.15;;;;;;;30.30;39.60;152674.28;5117535;27;20245;-52
2023/05/07 08:29:03;;;;;;;6.50;5.47;;;;;;;30.48;40.33;152718.88;5119175;27;20191;-51
2023/05/07 08:31:52;;;;;;;5.90;5.50;;;;;;;30.46;40.77;152713.81;5130236;27;20258;-51
2023/05/07 08:34:31;;;;;;;6.13;5.05;;;;;;;30.14;40.81;152634.75;5129187;27;20197;-48
2023/05/07 08:37:10;;;;;;;13.88;6.07;;;;;;;29.45;43.36;152460.19;5130270;27;20193;-49
2023/05/07 08:40:06;;;;;;;5.32;5.03;;;;;;;29.13;42.48;152381.13;5130480;27;20697;-48
2023/05/07 08:42:59;;;;;;;6.47;4.63;;;;;;;29.13;42.18;152381.13;5130113;27;20194;-48
2023/05/07 08:45:46;;;;;;;6.78;4.68;;;;;;;28.88;41.49;152317.47;5125226;28;20233;-49
2023/05/07 08:48:26;;;;;;;10.93;4.63;;;;;;;28.69;42.71;152270.28;5116585;28;20216;-51
2023/05/07 08:51:23;;;;;;;4.78;4.00;;;;;;;28.45;43.09;152209.16;5126071;28;20266;-50
2023/05/07 08:54:20;;;;;;;5.03;4.63;;;;;;;28.26;44.33;152160.78;5130561;28;20741;-48
2023/05/07 08:57:02;;;;;;;5.68;5.20;;;;;;;28.51;44.04;152225.72;5129979;28;20194;-49
2023/05/07 08:59:54;;;;;;;6.18;5.15;;;;;;;27.98;44.26;152092.03;5129742;28;20246;-50
2023/05/07 09:05:41;;;;;;;5.00;4.60;;;;;;;27.76;43.92;152037.31;5109682;28;20658;-51
2023/05/07 09:11:01;;;;;;;5.22;4.82;;;;;;;28.33;43.70;152178.63;5112548;28;20234;-48
2023/05/07 09:13:42;;;;;;;5.53;5.00;;;;;;;28.11;42.85;152123.81;5114354;28;20194;-50
2023/05/07 09:16:23;;;;;;;4.22;3.92;;;;;;;28.01;41.05;152099.63;5131706;27;20200;-49
2023/05/07 09:19:02;;;;;;;6.70;3.45;;;;;;;28.27;39.14;152163.34;5132657;27;20250;-49
2023/05/07 09:21:36;;;;;;;4.88;3.53;;;;;;;28.29;39.55;152168.44;5133230;27;20200;-49
2023/05/07 09:24:28;;;;;;;3.67;3.38;;;;;;;28.30;38.26;152171.00;5130873;27;20198;-48
2023/05/07 09:27:08;;;;;;;3.83;3.53;;;;;;;28.43;38.29;152205.38;5132868;27;20788;-49
2023/05/07 09:29:55;;;;;;;3.75;3.55;;;;;;;28.26;37.21;152162.06;5132653;27;20288;-48
2023/05/07 09:32:46;;;;;;;4.15;3.85;;;;;;;28.68;36.90;152267.72;5129911;27;20266;-51
2023/05/07 09:35:25;;;;;;;5.03;3.83;;;;;;;28.47;37.45;152214.25;5130112;27;20198;-50
2023/05/07 09:38:04;;;;;;;5.00;3.78;;;;;;;28.30;37.73;152172.25;5131323;27;20194;-49
2023/05/07 09:40:50;;;;;;;4.50;4.03;;;;;;;28.28;37.82;152165.88;5132846;27;20190;-49
2023/05/07 09:46:52;;;;;;;5.88;4.35;;;;;;;28.11;38.00;152123.81;5130235;27;20294;-51
2023/05/07 09:49:37;;;;;;;7.05;4.43;;;;;;;27.99;39.35;152094.53;5130826;27;20197;-50
2023/05/07 09:52:35;;;;;;;5.38;4.85;;;;;;;27.68;39.23;152016.91;5131808;27;20242;-51
2023/05/07 09:55:28;;;;;;;4.97;4.45;;;;;;;28.08;39.50;152117.47;5112004;28;20201;-51
2023/05/07 10:01:12;;;;;;;4.55;4.25;;;;;;;27.48;40.89;151965.97;5132344;27;20209;-49
2023/05/07 10:03:55;;;;;;;4.47;4.07;;;;;;;27.21;40.59;151898.50;5128866;27;20204;-50
2023/05/07 10:06:48;;;;;;;4.45;4.15;;;;;;;27.09;41.96;151869.25;5131633;27;20222;-50
2023/05/07 10:09:29;;;;;;;4.35;3.78;;;;;;;26.59;42.75;151742.03;5131440;27;20202;-51
2023/05/07 10:12:18;;;;;;;6.05;4.20;;;;;;;26.46;42.99;151708.97;5131669;27;20241;-51
2023/05/07 10:15:03;;;;;;;5.32;5.03;;;;;;;26.34;43.87;151681.00;5124822;27;20286;-50
2023/05/07 10:18:06;;;;;;;4.40;4.10;;;;;;;26.06;44.09;151608.50;5124459;27;20255;-50
2023/05/07 10:20:58;;;;;;;5.22;4.90;;;;;;;26.28;44.28;151665.75;5122130;27;20202;-50
2023/05/07 10:23:49;;;;;;;4.38;4.00;;;;;;;25.97;43.45;151588.13;5122974;27;20240;-50
2023/05/07 10:29:44;;;;;;;5.90;4.78;;;;;;;25.58;44.64;151488.94;5122847;27;20660;-51
2023/05/07 10:32:34;;;;;;;4.85;4.45;;;;;;;25.73;44.66;151527.13;5119550;27;20211;-51
2023/05/07 10:35:26;;;;;;;4.70;4.40;;;;;;;25.74;44.26;151529.63;5117802;27;20318;-51
2023/05/07 10:37:56;;;;;;;4.40;4.20;;;;;;;25.61;44.05;151497.91;5121084;27;20197;-50
2023/05/07 10:40:28;;;;;;;4.35;4.05;;;;;;;25.14;44.35;151379.66;5122115;27;20189;-50
2023/05/07 10:43:07;;;;;;;4.53;4.03;;;;;;;25.12;44.03;151374.56;5122128;27;20205;-50
2023/05/07 10:45:49;;;;;;;7.00;4.32;;;;;;;24.81;44.12;151295.78;5121627;27;20669;-50
2023/05/07 10:48:21;;;;;;;4.93;3.70;;;;;;;24.89;44.78;151316.09;5121121;27;20219;-50
2023/05/07 10:51:29;;;;;;;3.72;3.53;;;;;;;24.86;44.72;151309.72;5120483;27;20190;-49
2023/05/07 10:54:34;;;;;;;4.00;3.80;;;;;;;25.03;43.62;151351.72;5122268;27;20191;-48
2023/05/07 11:00:59;;;;;;;3.80;3.53;;;;;;;24.71;44.96;151270.38;5122231;27;20195;-49
2023/05/07 11:04:03;;;;;;;4.55;4.10;;;;;;;24.78;44.70;151288.13;5120373;27;20194;-49
2023/05/07 11:07:41;;;;;;;4.68;3.65;;;;;;;25.06;44.81;151359.31;5119060;27;20704;-49
2023/05/07 11:10:47;;;;;;;5.53;4.10;;;;;;;24.94;44.36;151330.09;5121558;27;20186;-48
2023/05/07 11:14:03;;;;;;;9.20;8.35;;;;;;;25.00;44.17;151344.09;5121303;27;20452;-49
2023/05/07 11:16:44;;;;;;;4.68;3.60;;;;;;;25.09;43.95;151366.94;5120697;27;20194;-50
2023/05/07 11:19:38;;;;;;;3.90;3.70;;;;;;;25.26;44.11;151410.16;5120773;27;20227;-49
2023/05/07 11:22:56;;;;;;;3.60;3.38;;;;;;;25.18;43.51;151389.81;5121944;27;20276;-48
2023/05/07 11:31:39;;;;;;;4.28;3.80;;;;;;;24.88;43.93;151314.81;5120176;27;20198;-49
2023/05/07 11:34:36;;;;;;;4.28;3.88;;;;;;;24.91;43.64;151321.16;5120925;27;20730;-49
2023/05/07 11:37:22;;;;;;;3.78;3.58;;;;;;;24.71;43.65;151270.38;5119195;27;20557;-50
2023/05/07 11:40:28;;;;;;;4.88;4.50;;;;;;;24.59;44.45;151242.44;5118635;27;20195;-50
2023/05/07 11:43:35;;;;;;;4.88;4.03;;;;;;;24.69;43.77;151265.28;5121105;27;20273;-49
2023/05/07 11:46:21;;;;;;;4.18;3.88;;;;;;;24.47;43.77;151211.94;5121121;27;20720;-48
2023/05/07 11:49:15;;;;;;;4.63;3.80;;;;;;;24.63;44.00;151250.00;5117953;27;20197;-49
2023/05/07 11:52:04;;;;;;;3.88;3.60;;;;;;;24.81;43.98;151295.78;5121920;27;20601;-50
2023/05/07 11:55:24;;;;;;;4.15;3.80;;;;;;;24.90;43.47;151318.63;5119904;27;20281;-48
2023/05/07 11:58:21;;;;;;;6.47;4.90;;;;;;;24.97;44.31;151336.44;5116668;27;20193;-49
2023/05/07 12:01:14;;;;;;;4.65;4.35;;;;;;;24.89;44.99;151316.09;5117615;27;20278;-46
2023/05/07 12:04:20;;;;;;;4.05;3.72;;;;;;;24.84;44.26;151304.63;5121259;27;20194;-49
2023/05/07 12:07:19;;;;;;;4.10;3.55;;;;;;;24.67;43.24;151261.47;5118190;27;20224;-48
2023/05/07 12:16:14;;;;;;;4.60;4.30;;;;;;;24.41;45.36;151195.41;5119394;27;20198;-48
2023/05/07 12:22:25;;;;;;;3.90;3.53;;;;;;;24.12;46.24;151123.00;5119629;27;20322;-49
2023/05/07 12:28:36;;;;;;;;;;;;;;;;;;;;;
2023/05/07 12:31:19;;;;;;;5.97;4.20;;;;;;;24.08;46.62;151112.81;5120457;27;20193;-48
2023/05/07 12:34:09;;;;;;;4.75;4.45;;;;;;;24.00;46.19;151093.78;5119626;27;20673;-49
2023/05/07 12:36:49;;;;;;;3.78;3.45;;;;;;;24.08;45.78;151114.09;5120337;27;20239;-48
2023/05/07 12:39:43;;;;;;;4.50;4.10;;;;;;;24.05;45.92;151105.19;5119869;27;20255;-49
2023/05/07 12:42:32;;;;;;;3.75;3.55;;;;;;;23.98;46.29;151087.44;5121182;28;20190;-49
2023/05/07 12:45:12;;;;;;;3.85;3.65;;;;;;;23.94;46.85;151078.53;5119150;27;20190;-49
2023/05/07 12:47:49;;;;;;;4.05;3.42;;;;;;;24.06;46.88;151107.72;5120511;28;20214;-50
2023/05/07 12:50:29;;;;;;;5.90;3.70;;;;;;;24.20;47.23;151143.28;5120193;28;20200;-49
2023/05/07 12:52:57;;;;;;;9.55;8.95;;;;;;;24.35;46.35;151181.47;5120642;28;20251;-50
2023/05/07 12:55:32;;;;;;;3.83;3.58;;;;;;;24.31;45.72;151171.28;5118671;28;20195;-49
2023/05/07 13:07:55;;;;;;;4.25;4.05;;;;;;;24.29;45.59;151166.19;5117784;28;20273;-48
2023/05/07 13:10:41;;;;;;;4.18;3.88;;;;;;;24.17;46.14;151135.66;5120088;28;20202;-49
2023/05/07 13:16:40;;;;;;;4.35;3.95;;;;;;;24.17;45.36;151135.66;5117351;28;20206;-49
2023/05/07 13:19:11;;;;;;;3.88;3.63;;;;;;;24.20;45.15;151144.56;5118694;28;20194;-49
2023/05/07 13:21:56;;;;;;;4.20;3.95;;;;;;;24.29;44.94;151164.91;5119286;28;20190;-50
2023/05/07 13:24:36;;;;;;;4.25;3.80;;;;;;;24.16;44.26;151134.38;5120638;28;20198;-50
2023/05/07 13:27:27;;;;;;;4.93;3.80;;;;;;;24.16;44.37;151133.13;5120770;28;20572;-50
2023/05/07 13:33:01;;;;;;;3.47;3.25;;;;;;;24.12;44.03;151123.00;5116116;28;20206;-46
2023/05/07 13:35:37;;;;;;;4.65;3.50;;;;;;;24.09;44.04;151115.38;5118129;28;20195;-47
2023/05/07 13:40:58;;;;;;;3.65;3.30;;;;;;;24.09;44.11;151115.38;5116908;28;20199;-49
2023/05/07 13:43:31;;;;;;;3.55;3.35;;;;;;;24.18;44.30;151139.47;5118101;28;20205;-48
2023/05/07 13:48:58;;;;;;;3.33;3.05;;;;;;;24.11;43.06;151120.44;5118292;28;20218;-50
2023/05/07 13:51:33;;;;;;;3.35;3.13;;;;;;;24.10;43.48;151117.91;5119036;27;20240;-48
2023/05/07 13:54:11;;;;;;;3.92;3.20;;;;;;;24.13;43.62;151125.53;5127937;27;20641;-48
2023/05/07 13:56:58;;;;;;;2.88;2.78;;;;;;;24.07;43.26;151111.53;5132486;27;20194;-49
2023/05/07 13:59:31;;;;;;;5.15;3.13;;;;;;;24.10;43.38;151119.19;5133349;27;20658;-48
2023/05/07 14:02:01;;;;;;;3.17;3.08;;;;;;;24.05;43.08;151105.19;5133292;27;20250;-49
2023/05/07 14:04:48;;;;;;;6.05;3.38;;;;;;;24.09;43.09;151115.38;5130507;27;20189;-50
2023/05/07 14:07:34;;;;;;;4.18;3.88;;;;;;;24.05;43.60;151105.19;5131293;27;20572;-48
2023/05/07 14:10:14;;;;;;;4.68;4.38;;;;;;;23.93;43.15;151076.00;5133189;27;20210;-50
2023/05/07 14:12:55;;;;;;;3.05;2.80;;;;;;;23.93;43.31;151076.00;5132119;27;20677;-48
2023/05/07 14:15:27;;;;;;;4.00;3.00;;;;;;;24.02;43.00;151097.59;5125186;27;20256;-49
2023/05/07 14:17:59;;;;;;;3.35;3.13;;;;;;;24.04;43.44;151102.69;5122238;27;20217;-50
2023/05/07 14:20:56;;;;;;;3.10;2.80;;;;;;;24.07;42.89;151110.28;5122331;27;20200;-48
2023/05/07 14:23:29;;;;;;;3.33;2.90;;;;;;;23.92;43.43;151072.22;5119228;27;20195;-48
2023/05/07 14:26:12;;;;;;;3.28;3.08;;;;;;;23.93;42.68;151074.75;5122561;27;20193;-50
2023/05/07 14:31:57;;;;;;;2.65;2.55;;;;;;;23.73;43.66;151026.50;5123753;27;20194;-50
2023/05/07 14:40:48;;;;;;;2.50;2.40;;;;;;;23.86;43.76;151058.22;5132317;27;20201;-49
2023/05/07 14:43:25;;;;;;;3.60;3.00;;;;;;;23.79;43.63;151041.75;5118060;27;20252;-48
2023/05/07 14:49:56;;;;;;;3.60;3.30;;;;;;;23.72;44.23;151023.94;5132975;27;20224;-51
2023/05/07 14:52:55;;;;;;;4.65;2.75;;;;;;;23.73;44.87;151025.22;5129836;27;20197;-52
2023/05/07 14:56:07;;;;;;;3.40;3.13;;;;;;;23.72;43.79;151022.66;5132650;27;20198;-52
2023/05/07 14:59:24;;;;;;;3.78;2.63;;;;;;;23.55;44.45;150980.81;5128904;27;20194;-52
2023/05/07 15:05:02;;;;;;;3.30;2.97;;;;;;;23.60;44.33;150992.19;5130282;27;20194;-49
2023/05/07 15:07:43;;;;;;;2.90;2.70;;;;;;;23.54;44.11;150978.25;5132772;27;20196;-49
2023/05/07 15:10:13;;;;;;;3.15;2.85;;;;;;;23.45;44.79;150956.66;5132292;27;20197;-50
2023/05/07 15:22:10;;;;;;;3.80;3.22;;;;;;;23.47;44.15;150960.47;5131969;27;20201;-50
2023/05/07 16:36:19;;;;;;;2.92;2.72;;;;;;;22.18;47.02;150638.16;4589685;27;14231008;-53
2023/05/07 16:39:24;;;;;;;4.47;4.20;;;;;;;22.23;47.02;150649.59;5085252;28;20184;-51
2023/05/07 16:42:19;;;;;;;4.18;3.80;;;;;;;22.20;47.12;150643.25;5085182;28;20160;-52
2023/05/07 16:48:10;;;;;;;3.20;3.00;;;;;;;22.16;47.20;150631.81;5090555;28;25127;-49
2023/05/07 16:51:10;;;;;;;3.47;3.20;;;;;;;22.09;47.12;150616.63;5107466;28;20161;-48
2023/05/07 16:54:01;;;;;;;3.10;2.90;;;;;;;22.16;47.05;150631.81;5107259;28;20153;-51
2023/05/07 16:57:10;;;;;;;5.57;4.43;;;;;;;22.10;47.58;150617.88;5107185;28;20545;-50